KMCK Airport (Mc Cook Ben Nelson Rgnl) Information

FAA: MCK - ICAO: KMCK

KMCK Airport Location

State Nebraska
County Red Willow
City Mc Cook
KMCK Airport is 2 miles east of Mc Cook, NE.
Latitude 40-12-22.6000N
Longitude 100-35-31.5000W
Elevation 2,582ft

KMCK Airport METARs

METAR KMCK 262253Z AUTO 33006KT 7SM CLR 18/M06 A2992 RMK AO2 SLP131 T01781061
Altimeter 29.92"
Temperature 17.8°C (64.0°F)
Wind 330° at 6KT
Clouds Skies are clear.
Visibility 7.0mi
Time observed: 2021-11-26T22:53:00Z

KMCK Airport Details

Status Operational
Activation May 1946
Ownership Public
Usage Public
Chart OMAHA
ATC on-site No
Beacon schedule sunset-sunrise
Beacon color clear green

KMCK Airport Contacts

Owner CITY OF MC COOK
Owner address BOX 1059, MC COOK, NE 69001
Owner phone 308-345-2022
Manager LUKE BALLMER
Manager address 10 E. 31ST ST., KEARNEY, NE 68847
Manager phone 308-865-7228

KMCK Airport (Mc Cook Ben Nelson Rgnl) Radio Frequencies

KMCK (Airport) Radio Frequencies

UNICOM 122.8
Common traffic advisory frequency (CTAF) 122.8